createdAt,value
2023-02-07T00:01:36.368Z,48.15
2023-02-07T00:04:06.768Z,52.85
2023-02-07T00:06:37.437Z,53.95
2023-02-07T00:09:08.397Z,54.10
2023-02-07T00:11:40.343Z,45.30
2023-02-07T00:14:10.632Z,50.42
2023-02-07T00:16:39.835Z,42.25
2023-02-07T00:19:10.095Z,47.90
2023-02-07T00:21:38.549Z,48.95
2023-02-07T00:24:07.732Z,41.67
2023-02-07T00:26:36.233Z,46.75
2023-02-07T00:29:05.596Z,57.60
2023-02-07T00:31:36.644Z,55.28
2023-02-07T00:34:07.093Z,50.92
2023-02-07T00:36:37.729Z,32.53
2023-02-07T00:39:09.100Z,46.47
2023-02-07T00:41:37.580Z,53.17
2023-02-07T00:44:06.743Z,49.97
2023-02-07T00:46:36.609Z,49.03
2023-02-07T00:49:06.185Z,49.75
2023-02-07T00:51:36.287Z,51.90
2023-02-07T00:54:04.947Z,47.65
2023-02-07T00:56:34.829Z,54.42
2023-02-07T00:59:03.625Z,48.30
2023-02-07T01:01:32.415Z,48.35
2023-02-07T01:04:01.126Z,47.50
2023-02-07T01:06:33.697Z,47.28
2023-02-07T01:09:05.560Z,44.22
2023-02-07T01:11:34.102Z,52.55
2023-02-07T01:14:03.294Z,64.00
2023-02-07T01:16:33.709Z,50.08
2023-02-07T01:19:04.248Z,57.77
2023-02-07T01:21:33.120Z,52.28
2023-02-07T01:24:01.472Z,45.72
2023-02-07T01:26:31.595Z,49.75
2023-02-07T01:28:59.848Z,45.55
2023-02-07T01:31:28.387Z,48.58
2023-02-07T01:33:57.505Z,57.33
2023-02-07T01:36:28.041Z,56.78
2023-02-07T01:38:57.424Z,59.85
2023-02-07T01:41:28.469Z,55.65
2023-02-07T01:44:04.046Z,59.05
2023-02-07T01:46:34.614Z,54.47
2023-02-07T01:49:07.291Z,54.45
2023-02-07T01:51:37.567Z,54.45
2023-02-07T01:54:11.097Z,51.15
2023-02-07T01:56:44.415Z,46.67
2023-02-07T01:59:16.602Z,41.92
2023-02-07T02:01:46.605Z,49.08
2023-02-07T02:04:15.118Z,50.83
2023-02-07T02:06:44.635Z,46.42
2023-02-07T02:09:16.096Z,39.08
2023-02-07T02:12:07.758Z,47.67
2023-02-07T02:17:25.548Z,38.67
2023-02-07T02:20:19.258Z,39.22
2023-02-07T02:23:14.121Z,36.65
2023-02-07T02:26:17.111Z,45.00
2023-02-07T02:29:14.481Z,42.60
2023-02-07T02:32:07.742Z,47.80
2023-02-07T02:34:46.174Z,48.55
2023-02-07T02:37:24.559Z,42.00
2023-02-07T02:40:01.851Z,54.47
2023-02-07T02:42:36.655Z,50.10
2023-02-07T02:45:11.884Z,47.92
2023-02-07T02:47:42.895Z,42.88
2023-02-07T02:50:19.854Z,50.53
2023-02-07T02:52:51.347Z,44.45
2023-02-07T02:55:41.687Z,53.95
2023-02-07T02:58:20.263Z,51.03
2023-02-07T03:01:01.170Z,41.97
2023-02-07T03:03:50.910Z,48.05
2023-02-07T03:06:34.949Z,46.20
2023-02-07T03:09:16.869Z,46.08
2023-02-07T03:11:56.422Z,49.05
2023-02-07T03:14:33.662Z,50.00
2023-02-07T03:17:15.174Z,44.97
2023-02-07T03:19:49.036Z,49.25
2023-02-07T03:22:22.253Z,49.45
2023-02-07T03:24:55.078Z,51.25
2023-02-07T03:27:26.100Z,55.45
2023-02-07T03:29:58.005Z,45.30
2023-02-07T03:32:30.396Z,44.22
2023-02-07T03:35:02.158Z,51.33
2023-02-07T03:37:36.633Z,48.35
2023-02-07T03:40:06.555Z,44.75
2023-02-07T03:42:38.536Z,48.13
2023-02-07T03:45:10.955Z,54.05
2023-02-07T03:47:39.279Z,48.95
2023-02-07T03:50:08.018Z,50.53
2023-02-07T03:52:38.170Z,56.40
2023-02-07T03:55:08.693Z,46.70
2023-02-07T03:57:37.640Z,43.45
2023-02-07T04:00:07.259Z,45.42
2023-02-07T04:02:40.996Z,51.13
2023-02-07T04:05:10.141Z,43.85
2023-02-07T04:07:40.650Z,47.83
2023-02-07T04:10:09.680Z,49.97
2023-02-07T04:12:38.299Z,49.72
2023-02-07T04:15:08.646Z,47.42
2023-02-07T04:17:38.849Z,49.83
2023-02-07T04:20:08.401Z,47.55
2023-02-07T04:22:36.727Z,47.65
2023-02-07T04:25:08.277Z,44.38
2023-02-07T04:27:36.577Z,42.17
2023-02-07T04:30:05.389Z,46.78
2023-02-07T04:32:33.688Z,52.13
2023-02-07T04:35:02.085Z,44.97
2023-02-07T04:37:30.590Z,46.88
2023-02-07T04:39:59.416Z,43.90
2023-02-07T04:42:29.223Z,39.25
2023-02-07T04:44:57.650Z,44.65
2023-02-07T04:47:25.858Z,38.05
2023-02-07T04:49:54.310Z,48.33
2023-02-07T04:52:22.686Z,43.60
2023-02-07T04:54:51.804Z,39.67
2023-02-07T04:57:20.132Z,41.95
2023-02-07T04:59:49.963Z,43.70
2023-02-07T05:02:18.628Z,45.22
2023-02-07T05:04:46.856Z,43.58
2023-02-07T05:07:15.238Z,45.15
2023-02-07T05:09:43.694Z,44.97
2023-02-07T05:12:13.083Z,38.33
2023-02-07T05:14:41.337Z,42.35
2023-02-07T05:17:11.828Z,43.53
2023-02-07T05:19:40.112Z,44.15
2023-02-07T05:22:08.284Z,39.83
2023-02-07T05:24:36.520Z,37.35
2023-02-07T05:27:04.821Z,43.35
2023-02-07T05:29:34.530Z,40.90
2023-02-07T05:32:20.152Z,44.25
2023-02-07T05:34:49.945Z,41.10
2023-02-07T05:37:18.182Z,44.75
2023-02-07T05:39:46.609Z,45.00
2023-02-07T05:42:14.991Z,42.10
2023-02-07T05:44:44.452Z,44.45
2023-02-07T05:47:13.166Z,42.33
2023-02-07T05:49:43.185Z,37.97
2023-02-07T05:52:14.032Z,40.27
2023-02-07T05:54:43.032Z,44.92
2023-02-07T05:57:11.461Z,45.50
2023-02-07T05:59:40.435Z,44.58
2023-02-07T06:02:08.719Z,47.75
2023-02-07T06:04:37.621Z,44.13
2023-02-07T06:07:06.393Z,42.35
2023-02-07T06:09:36.375Z,44.60
2023-02-07T06:12:05.403Z,36.08
2023-02-07T06:14:34.698Z,46.15
2023-02-07T06:17:02.904Z,41.08
2023-02-07T06:19:31.417Z,44.80
2023-02-07T06:21:59.870Z,45.65
2023-02-07T06:24:28.275Z,38.80
2023-02-07T06:26:58.122Z,51.33
2023-02-07T06:29:26.696Z,45.72
2023-02-07T06:31:55.032Z,45.03
2023-02-07T06:34:23.672Z,48.22
2023-02-07T06:36:52.179Z,45.22
2023-02-07T06:39:20.699Z,45.88
2023-02-07T06:41:49.652Z,44.30
2023-02-07T06:44:19.615Z,41.42
2023-02-07T06:46:48.175Z,39.80
2023-02-07T06:49:16.896Z,46.70
2023-02-07T06:51:45.239Z,38.80
2023-02-07T06:54:13.801Z,40.60
2023-02-07T06:56:42.218Z,41.25
2023-02-07T06:59:10.684Z,36.92
2023-02-07T07:01:40.752Z,39.03
2023-02-07T07:04:09.127Z,44.55
2023-02-07T07:06:37.430Z,39.53
2023-02-07T07:09:06.606Z,38.15
2023-02-07T07:11:34.948Z,42.35
2023-02-07T07:14:04.101Z,40.95
2023-02-07T07:16:32.959Z,40.67
2023-02-07T07:19:02.893Z,36.03
2023-02-07T07:21:31.627Z,34.15
2023-02-07T07:24:00.282Z,36.17
2023-02-07T07:26:39.539Z,37.03
2023-02-07T07:29:16.916Z,33.45
2023-02-07T07:31:45.901Z,38.17
2023-02-07T07:34:15.750Z,38.15
2023-02-07T07:36:44.138Z,40.72
2023-02-07T07:39:13.423Z,36.63
2023-02-07T07:41:42.077Z,34.63
2023-02-07T07:44:19.088Z,40.72
2023-02-07T07:46:47.458Z,36.65
2023-02-07T07:49:17.669Z,32.20
2023-02-07T07:51:46.941Z,32.33
2023-02-07T07:54:15.220Z,37.03
2023-02-07T07:56:43.528Z,28.52
2023-02-07T07:59:15.973Z,34.90
2023-02-07T08:01:53.332Z,32.63
2023-02-07T08:04:23.054Z,36.28
2023-02-07T08:06:51.694Z,31.80
2023-02-07T08:09:20.340Z,31.48
2023-02-07T08:11:48.665Z,30.95
2023-02-07T08:14:17.048Z,31.77
2023-02-07T08:16:45.416Z,30.17
2023-02-07T08:19:13.753Z,31.25
2023-02-07T08:21:44.820Z,30.85
2023-02-07T08:24:13.584Z,31.58
2023-02-07T08:26:42.083Z,31.85
2023-02-07T08:29:10.764Z,33.97
2023-02-07T08:31:39.428Z,34.05
2023-02-07T08:34:07.756Z,25.45
2023-02-07T08:36:37.173Z,30.85
2023-02-07T08:39:07.219Z,34.60
2023-02-07T08:41:35.869Z,30.40
2023-02-07T08:44:04.155Z,31.65
2023-02-07T08:46:32.649Z,25.52
2023-02-07T08:49:01.135Z,26.85
2023-02-07T08:51:31.596Z,24.92
2023-02-07T08:53:59.946Z,30.92
2023-02-07T08:56:29.779Z,23.83
2023-02-07T08:58:58.163Z,25.15
2023-02-07T09:01:27.219Z,27.80
2023-02-07T09:03:56.771Z,23.45
2023-02-07T09:06:25.948Z,25.48
2023-02-07T09:08:56.123Z,24.17
2023-02-07T09:11:24.579Z,27.17
2023-02-07T09:13:54.276Z,21.90
2023-02-07T09:16:23.496Z,22.30
2023-02-07T09:18:53.108Z,22.27
2023-02-07T09:21:21.562Z,19.70
2023-02-07T09:23:50.067Z,22.00
2023-02-07T09:26:22.156Z,24.23
2023-02-07T09:28:50.889Z,24.70
2023-02-07T09:31:21.893Z,22.95
2023-02-07T09:33:50.333Z,21.33
2023-02-07T09:36:21.029Z,21.83
2023-02-07T09:38:49.310Z,23.58
2023-02-07T09:41:23.733Z,19.33
2023-02-07T09:44:03.077Z,21.83
2023-02-07T09:46:38.009Z,22.92
2023-02-07T09:49:13.969Z,18.67
2023-02-07T09:51:45.400Z,24.48
2023-02-07T09:56:48.999Z,21.77
2023-02-07T09:59:26.346Z,24.70
2023-02-07T10:02:01.306Z,20.00
2023-02-07T10:04:36.434Z,18.88
2023-02-07T10:07:08.366Z,18.13
2023-02-07T10:09:40.968Z,17.48
2023-02-07T10:12:21.934Z,19.88
2023-02-07T10:15:22.424Z,17.67
2023-02-07T10:18:08.489Z,17.42
2023-02-07T10:20:40.755Z,16.17
2023-02-07T10:23:29.312Z,20.77
2023-02-07T10:26:06.317Z,22.75
2023-02-07T10:28:52.399Z,18.08
2023-02-07T10:31:24.369Z,20.13
2023-02-07T10:33:58.773Z,19.67
2023-02-07T10:36:29.899Z,16.08
2023-02-07T10:39:09.356Z,17.92
2023-02-07T10:41:39.665Z,17.65
2023-02-07T10:44:11.490Z,18.77
2023-02-07T10:46:42.007Z,21.45
2023-02-07T10:49:24.787Z,18.57
2023-02-07T10:51:58.069Z,18.85
2023-02-07T10:54:27.423Z,15.95
2023-02-07T10:57:01.981Z,16.75
2023-02-07T10:59:40.774Z,14.32
2023-02-07T11:02:39.770Z,12.45
2023-02-07T11:05:30.315Z,17.48
2023-02-07T11:08:00.160Z,14.68
2023-02-07T11:10:32.348Z,15.45
2023-02-07T11:13:02.574Z,14.57
2023-02-07T11:15:39.049Z,16.42
2023-02-07T11:18:07.898Z,15.73
2023-02-07T11:20:41.183Z,16.52
2023-02-07T11:23:16.543Z,15.88
2023-02-07T11:25:47.263Z,16.67
2023-02-07T11:28:21.581Z,21.00
2023-02-07T11:30:56.568Z,16.20
2023-02-07T11:33:28.785Z,16.02
2023-02-07T11:36:22.330Z,16.45
2023-02-07T11:38:53.865Z,18.08
2023-02-07T11:41:25.671Z,15.93
2023-02-07T11:46:35.651Z,17.13
2023-02-07T11:49:06.232Z,18.75
2023-02-07T11:51:36.833Z,17.88
2023-02-07T11:54:08.072Z,14.20
2023-02-07T11:56:40.598Z,18.60
2023-02-07T11:59:15.479Z,12.65
2023-02-07T12:01:46.141Z,19.45
2023-02-07T12:04:18.581Z,18.30
2023-02-07T12:06:56.707Z,15.00
2023-02-07T12:09:34.839Z,12.63
2023-02-07T12:12:08.254Z,16.60
2023-02-07T12:14:43.389Z,15.98
2023-02-07T12:17:17.384Z,15.70
2023-02-07T12:19:53.933Z,15.38
2023-02-07T12:22:30.516Z,16.65
2023-02-07T12:25:05.241Z,17.45
2023-02-07T12:27:38.229Z,13.88
2023-02-07T12:30:17.036Z,13.50
2023-02-07T12:32:54.762Z,14.02
2023-02-07T12:35:27.768Z,15.75
2023-02-07T12:38:06.435Z,14.50
2023-02-07T12:40:40.531Z,15.98
2023-02-07T12:43:15.874Z,15.15
2023-02-07T12:46:11.823Z,12.57
2023-02-07T12:48:57.038Z,18.60
2023-02-07T12:51:34.631Z,14.60
2023-02-07T12:54:21.809Z,15.98
2023-02-07T12:56:57.749Z,14.15
2023-02-07T12:59:40.635Z,19.90
2023-02-07T13:02:27.892Z,16.55
2023-02-07T13:05:15.166Z,16.88
2023-02-07T13:07:55.738Z,12.93
2023-02-07T13:10:38.794Z,17.10
2023-02-07T13:13:18.624Z,18.08
2023-02-07T13:15:53.920Z,20.60
2023-02-07T13:18:31.569Z,18.52
2023-02-07T13:21:11.680Z,19.08
2023-02-07T13:23:45.067Z,19.98
2023-02-07T13:26:20.108Z,16.25
2023-02-07T13:28:53.099Z,25.05
2023-02-07T13:31:25.719Z,19.27
2023-02-07T13:33:54.901Z,16.63
2023-02-07T13:36:31.099Z,20.88
2023-02-07T13:39:09.224Z,17.58
2023-02-07T13:41:49.145Z,19.00
2023-02-07T13:44:26.140Z,19.00
2023-02-07T13:47:45.128Z,16.88
2023-02-07T13:50:25.444Z,17.30
2023-02-07T13:53:01.034Z,16.88
2023-02-07T13:55:33.602Z,20.38
2023-02-07T13:58:20.636Z,19.05
2023-02-07T14:01:02.166Z,19.35
2023-02-07T14:03:34.088Z,20.30
2023-02-07T14:06:25.988Z,14.77
2023-02-07T14:09:02.856Z,18.52
2023-02-07T14:11:39.566Z,17.98
2023-02-07T14:14:16.898Z,17.13
2023-02-07T14:16:49.870Z,17.88
2023-02-07T14:19:54.920Z,17.75
2023-02-07T14:22:27.264Z,18.92
2023-02-07T14:25:25.277Z,14.57
2023-02-07T14:28:21.066Z,19.48
2023-02-07T14:31:03.595Z,18.95
2023-02-07T14:33:36.860Z,21.08
2023-02-07T14:36:18.677Z,17.40
2023-02-07T14:39:03.167Z,17.00
2023-02-07T14:41:34.970Z,17.52
2023-02-07T14:44:10.014Z,16.33
2023-02-07T14:46:43.044Z,18.45
2023-02-07T14:49:19.710Z,21.88
2023-02-07T14:51:50.957Z,17.75
2023-02-07T14:54:27.512Z,21.05
2023-02-07T14:57:05.087Z,19.63
2023-02-07T14:59:37.778Z,17.73
2023-02-07T15:02:31.858Z,20.13
2023-02-07T15:05:11.655Z,19.60
2023-02-07T15:07:40.679Z,19.58
2023-02-07T15:10:16.342Z,21.27
2023-02-07T15:12:45.450Z,19.90
2023-02-07T15:15:21.979Z,22.45
2023-02-07T15:17:53.574Z,21.52
2023-02-07T15:20:26.804Z,18.70
2023-02-07T15:22:56.761Z,20.38
2023-02-07T15:25:26.976Z,22.15
2023-02-07T15:28:04.484Z,18.88
2023-02-07T15:30:34.880Z,21.08
2023-02-07T15:33:12.623Z,20.73
2023-02-07T15:35:41.905Z,23.52
2023-02-07T15:38:22.949Z,25.50
2023-02-07T15:40:52.204Z,20.60
2023-02-07T15:43:28.916Z,21.33
2023-02-07T15:46:03.759Z,20.30
2023-02-07T15:48:34.967Z,28.15
2023-02-07T15:51:06.622Z,21.40
2023-02-07T15:56:07.116Z,19.67
2023-02-07T15:58:38.292Z,22.73
2023-02-07T16:01:15.369Z,26.23
2023-02-07T16:03:47.700Z,23.52
2023-02-07T16:06:21.063Z,25.95
2023-02-07T16:08:51.356Z,21.98
2023-02-07T16:11:41.424Z,22.90
2023-02-07T16:14:23.198Z,21.88
2023-02-07T16:16:53.267Z,23.48
2023-02-07T16:19:27.508Z,21.98
2023-02-07T16:22:03.375Z,21.65
2023-02-07T16:24:36.247Z,24.52
2023-02-07T16:27:05.987Z,25.55
2023-02-07T16:29:36.798Z,28.30
2023-02-07T16:32:05.653Z,25.00
2023-02-07T16:34:35.367Z,27.67
2023-02-07T16:37:04.017Z,23.95
2023-02-07T16:39:32.705Z,22.63
2023-02-07T16:42:04.666Z,27.45
2023-02-07T16:44:35.334Z,22.50
2023-02-07T16:47:04.309Z,27.55
2023-02-07T16:49:33.715Z,26.45
2023-02-07T16:52:03.528Z,24.05
2023-02-07T16:54:32.780Z,29.20
2023-02-07T16:57:04.059Z,26.88
2023-02-07T16:59:32.815Z,25.33
2023-02-07T17:02:01.317Z,28.02
2023-02-07T17:04:30.015Z,25.83
2023-02-07T17:06:59.559Z,24.58
2023-02-07T17:09:29.545Z,23.13
2023-02-07T17:11:57.877Z,23.33
2023-02-07T17:14:27.622Z,23.75
2023-02-07T17:16:56.621Z,24.98
2023-02-07T17:19:28.027Z,19.85
2023-02-07T17:21:57.419Z,22.23
2023-02-07T17:24:26.328Z,22.30
2023-02-07T17:26:59.923Z,24.17
2023-02-07T17:29:30.136Z,23.40
2023-02-07T17:31:58.772Z,20.17
2023-02-07T17:34:27.246Z,23.50
2023-02-07T17:36:55.851Z,20.48
2023-02-07T17:39:24.281Z,26.33
2023-02-07T17:41:52.604Z,21.83
2023-02-07T17:44:24.732Z,25.45
2023-02-07T17:46:53.182Z,19.85
2023-02-07T17:49:21.713Z,19.48
2023-02-07T17:51:50.229Z,25.80
2023-02-07T17:54:18.582Z,23.80
2023-02-07T17:56:47.507Z,20.90
2023-02-07T17:59:24.304Z,20.27
2023-02-07T18:01:53.495Z,25.50
2023-02-07T18:04:22.225Z,24.33
2023-02-07T18:06:50.819Z,22.00
2023-02-07T18:09:20.880Z,24.42
2023-02-07T18:11:49.428Z,19.40
2023-02-07T18:14:18.097Z,22.17
2023-02-07T18:16:48.038Z,21.98
2023-02-07T18:19:18.574Z,23.90
2023-02-07T18:21:47.014Z,25.08
2023-02-07T18:24:15.599Z,26.80
2023-02-07T18:26:46.561Z,20.98
2023-02-07T18:29:14.994Z,21.88
2023-02-07T18:31:43.956Z,21.05
2023-02-07T18:34:13.721Z,23.50
2023-02-07T18:36:42.241Z,27.20
2023-02-07T18:39:12.449Z,29.70
2023-02-07T18:41:40.942Z,19.58
2023-02-07T18:44:09.461Z,24.05
2023-02-07T18:46:37.964Z,25.30
2023-02-07T18:49:06.332Z,23.83
2023-02-07T18:51:36.315Z,22.67
2023-02-07T18:54:04.711Z,26.90
2023-02-07T18:56:35.836Z,22.33
2023-02-07T18:59:05.167Z,22.27
2023-02-07T19:01:35.385Z,28.38
2023-02-07T19:04:04.487Z,28.65
2023-02-07T19:06:35.811Z,26.15
2023-02-07T19:09:04.277Z,24.27
2023-02-07T19:11:32.868Z,26.95
2023-02-07T19:14:01.148Z,29.77
2023-02-07T19:16:30.154Z,23.27
2023-02-07T19:19:02.017Z,21.98
2023-02-07T19:21:30.773Z,21.60
2023-02-07T19:24:00.631Z,24.63
2023-02-07T19:26:28.933Z,27.83
2023-02-07T19:28:59.041Z,30.17
2023-02-07T19:31:29.322Z,30.60
2023-02-07T19:33:59.000Z,27.33
2023-02-07T19:36:28.576Z,25.55
2023-02-07T19:38:57.001Z,23.80
2023-02-07T19:41:28.492Z,28.05
2023-02-07T19:43:59.412Z,25.20
2023-02-07T19:46:28.551Z,31.13
2023-02-07T19:48:59.653Z,25.58
2023-02-07T19:51:32.039Z,28.13
2023-02-07T19:54:00.663Z,29.75
2023-02-07T19:56:33.453Z,29.88
2023-02-07T19:59:03.996Z,29.45
2023-02-07T20:01:34.353Z,29.63
2023-02-07T20:04:02.875Z,28.20
2023-02-07T20:06:33.420Z,30.20
2023-02-07T20:09:03.594Z,26.10
2023-02-07T20:11:35.285Z,30.40
2023-02-07T20:14:04.228Z,26.52
2023-02-07T20:16:35.628Z,30.65
2023-02-07T20:19:06.913Z,28.08
2023-02-07T20:21:36.814Z,22.58
2023-02-07T20:24:06.608Z,24.23
2023-02-07T20:26:40.207Z,23.33
2023-02-07T20:29:12.094Z,25.92
2023-02-07T20:34:09.701Z,27.55
2023-02-07T20:36:41.460Z,25.80
2023-02-07T20:41:43.338Z,26.55
2023-02-07T20:44:14.462Z,25.23
2023-02-07T20:46:46.589Z,32.90
2023-02-07T20:49:17.535Z,25.27
2023-02-07T20:51:48.869Z,32.40
2023-02-07T20:54:18.051Z,28.05
2023-02-07T20:56:48.274Z,27.85
2023-02-07T20:59:19.081Z,24.25
2023-02-07T21:01:48.228Z,29.45
2023-02-07T21:04:17.607Z,30.63
2023-02-07T21:06:46.761Z,24.83
2023-02-07T21:09:16.870Z,30.40
2023-02-07T21:11:48.373Z,30.02
2023-02-07T21:14:18.682Z,24.75
2023-02-07T21:16:47.576Z,27.08
2023-02-07T21:19:16.808Z,35.35
2023-02-07T21:21:46.999Z,27.08
2023-02-07T21:24:16.334Z,30.20
2023-02-07T21:26:44.949Z,28.67
2023-02-07T21:29:15.015Z,25.88
2023-02-07T21:31:43.525Z,26.75
2023-02-07T21:34:13.174Z,28.45
2023-02-07T21:36:41.589Z,26.75
2023-02-07T21:39:12.338Z,29.08
2023-02-07T21:41:42.940Z,32.23
2023-02-07T21:44:13.123Z,28.83
2023-02-07T21:46:46.607Z,25.13
2023-02-07T21:49:16.710Z,29.25
2023-02-07T21:51:48.270Z,29.90
2023-02-07T21:54:17.413Z,31.25
2023-02-07T21:56:46.226Z,28.90
2023-02-07T21:59:16.454Z,24.55
2023-02-07T22:01:47.538Z,28.35
2023-02-07T22:04:18.142Z,30.40
2023-02-07T22:06:49.138Z,28.08
2023-02-07T22:09:19.377Z,32.17
2023-02-07T22:11:47.884Z,33.10
2023-02-07T22:14:17.617Z,26.33
2023-02-07T22:16:51.078Z,30.02
2023-02-07T22:19:21.259Z,30.58
2023-02-07T22:21:51.706Z,27.33
2023-02-07T22:24:21.193Z,28.88
2023-02-07T22:26:49.672Z,30.73
2023-02-07T22:29:18.163Z,27.08
2023-02-07T22:31:48.115Z,28.50
2023-02-07T22:34:17.170Z,25.25
2023-02-07T22:36:46.969Z,29.02
2023-02-07T22:39:17.179Z,30.65
2023-02-07T22:41:46.975Z,28.73
2023-02-07T22:44:15.922Z,31.05
2023-02-07T22:46:44.912Z,30.05
2023-02-07T22:49:16.713Z,25.73
2023-02-07T22:51:46.290Z,30.15
2023-02-07T22:54:19.540Z,32.42
2023-02-07T22:56:48.384Z,28.02
2023-02-07T22:59:17.741Z,25.77
2023-02-07T23:01:46.634Z,27.38
2023-02-07T23:04:18.605Z,29.02
2023-02-07T23:06:48.580Z,33.53
2023-02-07T23:09:17.420Z,32.10
2023-02-07T23:11:46.478Z,31.50
2023-02-07T23:14:16.539Z,28.02
2023-02-07T23:16:46.451Z,30.20
2023-02-07T23:19:18.294Z,29.65
2023-02-07T23:21:47.546Z,28.90
2023-02-07T23:24:16.498Z,29.02
2023-02-07T23:26:45.098Z,29.88
2023-02-07T23:29:14.122Z,28.75
2023-02-07T23:31:42.841Z,30.52
2023-02-07T23:34:12.074Z,30.50
2023-02-07T23:36:43.531Z,31.05
2023-02-07T23:39:13.240Z,31.05
2023-02-07T23:41:42.760Z,34.90
2023-02-07T23:44:11.909Z,31.60
2023-02-07T23:46:41.091Z,28.65
2023-02-07T23:49:09.944Z,26.25
2023-02-07T23:51:39.905Z,27.67
2023-02-07T23:54:10.663Z,32.53
2023-02-07T23:56:42.433Z,30.33
